PWSweather.com
Personal Weather Stations
Station Observations

PoschiavoCH

Lat: 46.31962499999999, Lon: 10.066551000000004

Elevation: 3517

Station Type: WH 1080

http://www.meteoposchiavo.com

Latest ConditionsUpdated 4:30:00 AM GMT+01:01 Wednesday, Mar 27, 2019
Currently Today's Max Today's Min Today's Average
Temperature 31.0°F-0.6°C 33.0°F0.6°C 30.0°F-1.1°C 31.5°F-0.3°C
Dew Point 12.6°F-10.8°C 14.0°F-10.0°C 9.5°F-12.5°C 11.4°F-11.4°C
Winds Calm Calm Calm -Calm - - Calm Calm
Wind Gusts -- 1.2 mph1.9 kmh - -
Humidity 46% 49% 38% 43%
Pressure 26.77 in906.5 mb 26.81 in907.9 mb 26.77 in906.5 mb -
Hour Temp Dew Point Humidity Winds Wind Gusts Pressure Precip Precip Rate Daily Precip Total
04:30 AM 31.0°F-0.6°C 12.6°F-10.8°C 46% Calm Calm -- 26.77 in906.5 mb - 0.00 in0.0 mm 0.00 in0.0 mm
04:25 AM 31.0°F-0.6°C 13.6°F-10.2°C 48% Calm Calm -- 26.77 in906.5 mb - 0.00 in0.0 mm 0.00 in0.0 mm
04:20 AM 31.0°F-0.6°C 14.0°F-10.0°C 49% Calm Calm -- 26.78 in906.9 mb - 0.00 in0.0 mm 0.00 in0.0 mm
04:15 AM 32.0°F0.0°C 13.5°F-10.3°C 46% Calm Calm -- 26.77 in906.5 mb - 0.00 in0.0 mm 0.00 in0.0 mm
04:10 AM 32.0°F0.0°C 12.5°F-10.8°C 44% Calm Calm -- 26.77 in906.5 mb - 0.00 in0.0 mm 0.00 in0.0 mm
04:00 AM 31.0°F-0.6°C 9.5°F-12.5°C 40% Calm Calm -- 26.77 in906.5 mb - 0.00 in0.0 mm 0.00 in0.0 mm
03:55 AM 31.0°F-0.6°C 11.1°F-11.6°C 43% Calm Calm -- 26.78 in906.9 mb - 0.00 in0.0 mm 0.00 in0.0 mm
03:50 AM 31.0°F-0.6°C 11.6°F-11.3°C 44% Calm Calm -- 26.78 in906.9 mb - 0.00 in0.0 mm 0.00 in0.0 mm
03:45 AM 31.0°F-0.6°C 13.1°F-10.5°C 47% Calm Calm -- 26.78 in906.9 mb - 0.00 in0.0 mm 0.00 in0.0 mm
03:40 AM 32.0°F0.0°C 12.5°F-10.8°C 44% Calm Calm -- 26.78 in906.9 mb - 0.00 in0.0 mm 0.00 in0.0 mm
03:35 AM 32.0°F0.0°C 10.9°F-11.7°C 41% Calm Calm -- 26.78 in906.9 mb - 0.00 in0.0 mm 0.00 in0.0 mm
03:30 AM 32.0°F0.0°C 11.5°F-11.4°C 42% Calm Calm -- 26.79 in907.2 mb - 0.00 in0.0 mm 0.00 in0.0 mm
03:25 AM 31.0°F-0.6°C 10.6°F-11.9°C 42% Calm Calm 1.2 mph1.9 kmh 26.78 in906.9 mb - 0.00 in0.0 mm 0.00 in0.0 mm
03:20 AM 32.0°F0.0°C 12.5°F-10.8°C 44% Calm Calm -- 26.79 in907.2 mb - 0.00 in0.0 mm 0.00 in0.0 mm
03:15 AM 31.6°F-0.2°C 12.2°F-11.0°C 44% Calm Calm -- 26.79 in907.2 mb - 0.00 in0.0 mm 0.00 in0.0 mm
03:10 AM 31.0°F-0.6°C 11.1°F-11.6°C 43% Calm Calm -- 26.79 in907.2 mb - 0.00 in0.0 mm 0.00 in0.0 mm
03:00 AM 31.0°F-0.6°C 11.1°F-11.6°C 43% Calm Calm -- 26.80 in907.6 mb - 0.00 in0.0 mm 0.00 in0.0 mm
02:55 AM 31.0°F-0.6°C 11.6°F-11.3°C 44% Calm Calm -- 26.80 in907.6 mb - 0.00 in0.0 mm 0.00 in0.0 mm
02:50 AM 30.0°F-1.1°C 11.2°F-11.6°C 45% Calm Calm -- 26.80 in907.6 mb - 0.00 in0.0 mm 0.00 in0.0 mm
02:45 AM 30.0°F-1.1°C 12.2°F-11.0°C 47% Calm Calm -- 26.80 in907.6 mb - 0.00 in0.0 mm 0.00 in0.0 mm
02:40 AM 30.6°F-0.8°C 12.3°F-10.9°C 46% Calm Calm -- 26.81 in907.9 mb - 0.00 in0.0 mm 0.00 in0.0 mm
02:35 AM 31.0°F-0.6°C 12.6°F-10.8°C 46% Calm Calm -- 26.81 in907.9 mb - 0.00 in0.0 mm 0.00 in0.0 mm
02:30 AM 31.0°F-0.6°C 10.6°F-11.9°C 42% Calm Calm -- 26.81 in907.9 mb - 0.00 in0.0 mm 0.00 in0.0 mm
02:25 AM 31.0°F-0.6°C 10.6°F-11.9°C 42% Calm Calm -- 26.80 in907.6 mb - 0.00 in0.0 mm 0.00 in0.0 mm
02:20 AM 32.0°F0.0°C 10.9°F-11.7°C 41% Calm Calm -- 26.81 in907.9 mb - 0.00 in0.0 mm 0.00 in0.0 mm
02:15 AM 30.0°F-1.1°C 10.2°F-12.1°C 43% Calm Calm -- 26.81 in907.9 mb - 0.00 in0.0 mm 0.00 in0.0 mm
02:10 AM 30.0°F-1.1°C 10.7°F-11.8°C 44% Calm Calm -- 26.81 in907.9 mb - 0.00 in0.0 mm 0.00 in0.0 mm
02:00 AM 30.3°F-0.9°C 11.4°F-11.4°C 45% Calm Calm -- 26.81 in907.9 mb - 0.00 in0.0 mm 0.00 in0.0 mm
01:55 AM 31.0°F-0.6°C 11.6°F-11.3°C 44% Calm Calm -- 26.81 in907.9 mb - 0.00 in0.0 mm 0.00 in0.0 mm
01:50 AM 32.0°F0.0°C 10.4°F-12.0°C 40% Calm Calm -- 26.81 in907.9 mb - 0.00 in0.0 mm 0.00 in0.0 mm
01:45 AM 32.0°F0.0°C 10.4°F-12.0°C 40% Calm Calm -- 26.81 in907.9 mb - 0.00 in0.0 mm 0.00 in0.0 mm
01:40 AM 32.0°F0.0°C 10.9°F-11.7°C 41% Calm Calm -- 26.81 in907.9 mb - 0.00 in0.0 mm 0.00 in0.0 mm
01:35 AM 32.0°F0.0°C 10.9°F-11.7°C 41% Calm Calm -- 26.81 in907.9 mb - 0.00 in0.0 mm 0.00 in0.0 mm
01:30 AM 31.0°F-0.6°C 11.6°F-11.3°C 44% Calm Calm -- 26.81 in907.9 mb - 0.00 in0.0 mm 0.00 in0.0 mm
01:25 AM 31.0°F-0.6°C 11.1°F-11.6°C 43% Calm Calm -- 26.80 in907.6 mb - 0.00 in0.0 mm 0.00 in0.0 mm
01:20 AM 31.0°F-0.6°C 10.6°F-11.9°C 42% Calm Calm -- 26.80 in907.6 mb - 0.00 in0.0 mm 0.00 in0.0 mm
01:15 AM 32.0°F0.0°C 12.5°F-10.8°C 44% Calm Calm -- 26.80 in907.6 mb - 0.00 in0.0 mm 0.00 in0.0 mm
01:10 AM 32.0°F0.0°C 10.4°F-12.0°C 40% Calm Calm -- 26.79 in907.2 mb - 0.00 in0.0 mm 0.00 in0.0 mm
01:00 AM 32.0°F0.0°C 11.5°F-11.4°C 42% Calm Calm -- 26.80 in907.6 mb - 0.00 in0.0 mm 0.00 in0.0 mm
12:55 AM 32.0°F0.0°C 10.9°F-11.7°C 41% Calm Calm -- 26.80 in907.6 mb - 0.00 in0.0 mm 0.00 in0.0 mm
12:50 AM 32.0°F0.0°C 10.4°F-12.0°C 40% Calm Calm -- 26.81 in907.9 mb - 0.00 in0.0 mm 0.00 in0.0 mm
12:45 AM 32.0°F0.0°C 9.8°F-12.3°C 39% Calm Calm -- 26.81 in907.9 mb - 0.00 in0.0 mm 0.00 in0.0 mm
12:40 AM 32.0°F0.0°C 11.5°F-11.4°C 42% Calm Calm -- 26.80 in907.6 mb - 0.00 in0.0 mm 0.00 in0.0 mm
12:35 AM 33.0°F0.6°C 11.8°F-11.2°C 41% Calm Calm -- 26.80 in907.6 mb - 0.00 in0.0 mm 0.00 in0.0 mm
12:30 AM 33.0°F0.6°C 11.8°F-11.2°C 41% Calm Calm -- 26.80 in907.6 mb - 0.00 in0.0 mm 0.00 in0.0 mm
12:25 AM 33.0°F0.6°C 11.3°F-11.5°C 40% Calm Calm -- 26.80 in907.6 mb - 0.00 in0.0 mm 0.00 in0.0 mm
12:20 AM 32.0°F0.0°C 9.8°F-12.3°C 39% Calm Calm -- 26.80 in907.6 mb - 0.00 in0.0 mm 0.00 in0.0 mm
12:15 AM 33.0°F0.6°C 11.3°F-11.5°C 40% Calm Calm -- 26.80 in907.6 mb - 0.00 in0.0 mm 0.00 in0.0 mm
12:10 AM 33.0°F0.6°C 11.3°F-11.5°C 40% Calm Calm -- 26.80 in907.6 mb - 0.00 in0.0 mm 0.00 in0.0 mm
12:00 AM 33.0°F0.6°C 10.1°F-12.2°C 38% Calm Calm -- 26.80 in907.6 mb - 0.00 in0.0 mm 0.00 in0.0 mm